Terminal Aerodrome Forecast
Issued by NWS

Home | Current Version | Previous Version | Graphics & Text | Print | Product List | Glossary On
Versions: 1 2 3 4 5 6 7 8 9 10 11 12 13 14
458
FTUS43 KGRB 191137
TAFCWA
TAF
KCWA 191137Z 1912/2012 32012G20KT P6SM OVC025
      TEMPO 1913/1914 SCT025
     FM191400 30010G16KT P6SM SCT035
     FM192000 26009KT P6SM BKN090
     FM200200 23004KT P6SM SCT090=

USA.gov is the U.S. government's official web portal to all federal, state and local government web resources and services.